Detroit, Michigan
Current Conditions -  °F | °C
As of 8:05 AM on Tuesday 21 Oct 2014 (Local Time) from CYQG Reporting Station
Overcast Overcast  
Wind Chill: 44°   Ceiling: 1500
Heat Index: 48°   Visibility: 10mi
Dew Point: 45°   Wind: 9mph
Humidity: 87%   Direction: 350°N
Pressure: 29.94"   Gusts: 17mph
Location:  42.33°N, 83.05°W
Report Text: CYQG 211205Z 35008G15KT 10SM FEW008 OVC015 09/07 A2994 RMK SF2ST6 INTMT -DZ SLP141
Loading
Personal Weather Stations






























Interactive Weather Map New forecast layout! Learn more

10-Day Weather Forecast

Advertisements
Track Severe Weather on mobile